Time;durP1;ratioP1;P1;durP2;ratioP2;P2;SDS_P1;SDS_P2;PMS_P1;PMS_P2;Temp;Humidity;BMP_temperature;BMP_pressure;BME280_temperature;BME280_humidity;BME280_pressure;Samples;Min_cycle;Max_cycle;Signal;HPM_P1;HPM_P2
2021/10/16 00:02:28;;;;;;;15.02;6.82;;;13.50;99.90;;;13.89;71.98;102124.97;4842203;29;20073;-71
2021/10/16 00:04:56;;;;;;;12.93;7.05;;;13.50;99.90;;;14.02;70.94;102135.63;4841882;29;20050;-71
2021/10/16 00:07:26;;;;;;;11.13;6.75;;;13.60;99.90;;;14.05;70.79;102134.75;4841881;29;20572;-71
2021/10/16 00:09:55;;;;;;;15.13;7.03;;;13.60;99.90;;;13.92;70.86;102117.88;4840827;29;20087;-71
2021/10/16 00:12:23;;;;;;;14.68;6.75;;;13.60;99.90;;;14.08;71.32;102134.75;4840814;29;20141;-71
2021/10/16 00:14:52;;;;;;;10.60;6.18;;;13.70;99.90;;;14.06;71.05;102139.19;4842052;29;20042;-71
2021/10/16 00:17:20;;;;;;;12.35;6.80;;;13.60;99.90;;;14.01;71.55;102123.22;4841740;29;20129;-71
2021/10/16 00:19:49;;;;;;;9.77;6.15;;;13.60;99.90;;;13.89;72.67;102119.63;4841656;29;20102;-71
2021/10/16 00:22:20;;;;;;;16.13;6.75;;;13.60;99.90;;;13.83;72.85;102139.13;4841939;29;20038;-71
2021/10/16 00:24:50;;;;;;;13.50;7.18;;;13.40;99.90;;;13.81;71.85;102132.03;4842021;29;20049;-71
2021/10/16 00:27:19;;;;;;;13.63;6.25;;;13.40;99.90;;;13.55;71.42;102094.72;4841904;29;20050;-71
2021/10/16 00:29:47;;;;;;;20.45;7.82;;;13.30;99.90;;;13.63;70.14;102134.66;4845628;29;20105;-71
2021/10/16 00:32:16;;;;;;;16.55;7.25;;;13.30;99.90;;;13.39;70.02;102092.91;4845621;29;20058;-72
2021/10/16 00:34:46;;;;;;;22.10;7.70;;;13.20;99.90;;;13.57;69.89;102125.75;4845551;29;20058;-71
2021/10/16 00:37:14;;;;;;;18.10;8.05;;;13.20;99.90;;;13.56;69.73;102129.31;4845757;29;20114;-71
2021/10/16 00:39:42;;;;;;;17.15;7.38;;;13.20;99.90;;;13.66;69.62;102124.00;4845396;29;20046;-71
2021/10/16 00:42:12;;;;;;;15.00;6.20;;;13.20;99.90;;;13.76;69.99;102125.81;4845385;29;20100;-71
2021/10/16 00:44:41;;;;;;;14.65;6.68;;;13.30;99.90;;;13.80;70.62;102132.94;4844072;29;20491;-71
2021/10/16 00:47:10;;;;;;;17.13;6.55;;;13.30;99.90;;;13.77;71.09;102125.81;4844344;29;20045;-72
2021/10/16 00:49:39;;;;;;;12.65;6.45;;;13.30;99.90;;;13.86;70.81;102124.97;4844212;29;20070;-72
2021/10/16 00:52:08;;;;;;;16.35;6.72;;;13.40;99.90;;;13.92;70.79;102128.50;4843695;29;20069;-72
2021/10/16 00:54:37;;;;;;;12.57;6.13;;;13.50;99.90;;;13.97;70.76;102125.88;4845188;29;20057;-71
2021/10/16 00:57:07;;;;;;;11.90;6.10;;;13.50;99.90;;;13.99;70.67;102129.41;4845198;29;20054;-71
2021/10/16 00:59:37;;;;;;;11.93;6.68;;;13.50;99.90;;;13.99;70.38;102125.00;4843631;29;20058;-72
2021/10/16 01:02:06;;;;;;;12.17;6.83;;;13.60;99.90;;;13.93;69.84;102113.44;4843776;29;20060;-69
2021/10/16 01:04:35;;;;;;;10.80;6.20;;;13.60;99.90;;;14.04;70.17;102125.88;4845008;29;20323;-69
2021/10/16 01:07:10;;;;;;;14.07;6.45;;;13.60;99.90;;;14.04;70.23;102123.22;4843673;29;20153;-69
2021/10/16 01:09:39;;;;;;;16.17;6.50;;;13.70;99.90;;;14.04;70.23;102124.97;4845826;29;20431;-70
2021/10/16 01:12:09;;;;;;;12.40;6.53;;;13.60;99.90;;;14.05;69.95;102130.31;4845541;29;20119;-69
2021/10/16 01:14:46;;;;;;;16.55;7.07;;;13.60;99.90;;;13.58;69.65;102049.56;4843971;29;20061;-69
2021/10/16 01:17:18;;;;;;;12.90;6.32;;;13.60;99.90;;;14.09;69.32;102116.13;4845475;29;20457;-69
2021/10/16 01:19:47;;;;;;;17.88;6.63;;;13.60;99.90;;;14.18;69.45;102125.91;4844127;29;20049;-69
2021/10/16 01:22:17;;;;;;;15.90;7.15;;;13.70;99.90;;;14.17;70.00;102118.78;4845107;29;20416;-69
2021/10/16 01:24:46;;;;;;;13.48;6.97;;;13.70;99.90;;;14.16;70.30;102119.69;4845323;29;20050;-69
2021/10/16 01:27:15;;;;;;;13.95;6.85;;;13.70;99.90;;;14.16;70.36;102117.91;4845206;29;20050;-69
2021/10/16 01:29:44;;;;;;;16.40;6.43;;;13.70;99.90;;;14.18;70.22;102125.91;4844956;29;20053;-69
2021/10/16 01:32:14;;;;;;;10.27;6.00;;;13.70;99.90;;;14.15;70.01;102117.94;4845179;29;20081;-69
2021/10/16 01:34:43;;;;;;;12.88;6.70;;;13.70;99.90;;;14.11;70.32;102118.81;4845029;29;20537;-69
2021/10/16 01:37:11;;;;;;;14.57;6.18;;;13.70;99.90;;;14.12;70.39;102112.59;4845125;29;20045;-69
2021/10/16 01:39:44;;;;;;;11.95;5.90;;;13.70;99.90;;;14.12;70.64;102110.81;4842597;29;20049;-69
2021/10/16 01:42:14;;;;;;;10.98;5.63;;;13.70;99.90;;;14.15;71.05;102117.94;4844725;29;20069;-71
2021/10/16 01:44:49;;;;;;;10.52;5.85;;;13.70;99.90;;;14.20;71.02;102113.47;4842889;29;20087;-67
2021/10/16 01:47:19;;;;;;;21.08;6.55;;;13.80;99.90;;;14.27;69.33;102109.91;4843195;29;20054;-67
2021/10/16 01:49:47;;;;;;;15.90;5.93;;;13.80;99.90;;;14.31;67.87;102103.75;4844339;29;20573;-67
2021/10/16 01:52:16;;;;;;;17.98;5.57;;;13.90;99.90;;;14.34;66.20;102093.13;4842740;29;20119;-67
2021/10/16 01:54:48;;;;;;;12.48;5.80;;;14.00;99.90;;;14.40;65.85;102101.13;4842940;29;20137;-67
2021/10/16 01:57:16;;;;;;;14.60;5.73;;;14.00;99.90;;;14.42;66.07;102104.63;4844124;29;20064;-67
2021/10/16 01:59:56;;;;;;;9.38;6.32;;;14.10;99.90;;;14.35;68.40;102100.22;4842844;29;20106;-67
2021/10/16 02:02:33;;;;;;;9.95;5.47;;;14.00;99.90;;;14.15;70.71;102099.31;4844196;29;20050;-67
2021/10/16 02:05:24;;;;;;;11.75;5.80;;;13.80;99.90;;;14.09;70.75;102099.28;4843514;29;20054;-67
2021/10/16 02:08:21;;;;;;;14.63;6.10;;;13.70;99.90;;;13.99;71.21;102093.06;4842735;29;20416;-68
2021/10/16 02:10:51;;;;;;;11.38;6.00;;;13.60;99.90;;;13.99;71.20;102094.84;4842650;29;20050;-67
2021/10/16 02:13:19;;;;;;;13.00;5.70;;;13.60;99.90;;;14.03;70.98;102096.63;4843844;29;20052;-67
2021/10/16 02:16:09;;;;;;;22.77;6.87;;;13.60;99.90;;;14.08;69.51;102098.41;4843474;29;20054;-67
2021/10/16 02:18:42;;;;;;;15.70;6.30;;;13.60;99.90;;;14.14;68.75;102098.41;4842724;29;20064;-67
2021/10/16 02:21:11;;;;;;;12.93;5.60;;;13.70;99.90;;;14.05;68.53;102087.72;4842478;29;20058;-67
2021/10/16 02:23:41;;;;;;;14.35;5.82;;;13.70;99.90;;;13.88;70.20;102091.28;4842575;29;20049;-67
2021/10/16 02:26:13;;;;;;;16.15;6.35;;;13.50;99.90;;;13.71;71.13;102087.66;4842657;29;20508;-67
2021/10/16 02:28:45;;;;;;;10.43;5.45;;;13.40;99.90;;;13.76;71.33;102088.59;4842564;29;20054;-67
2021/10/16 02:31:40;;;;;;;12.63;5.47;;;13.30;99.90;;;13.66;72.05;102084.13;4844822;29;20061;-67
2021/10/16 02:34:11;;;;;;;6.45;4.85;;;13.20;99.90;;;13.61;72.04;102085.91;4842247;29;20054;-67
2021/10/16 02:36:56;;;;;;;16.85;5.93;;;13.20;99.90;;;13.66;71.57;102089.44;4842509;29;20513;-67
2021/10/16 02:39:25;;;;;;;17.35;6.25;;;13.20;99.90;;;13.75;70.19;102093.00;4842368;29;20057;-68
2021/10/16 02:41:58;;;;;;;11.88;5.90;;;13.30;99.90;;;13.71;69.83;102090.34;4842651;29;20098;-67
2021/10/16 02:44:29;;;;;;;13.73;6.38;;;13.30;99.90;;;13.68;69.63;102085.91;4842358;29;20049;-67
2021/10/16 02:46:58;;;;;;;13.90;5.70;;;13.30;99.90;;;13.69;69.49;102090.34;4842152;29;20054;-67
2021/10/16 02:49:27;;;;;;;9.57;5.60;;;13.30;99.90;;;13.55;70.05;102100.94;4841844;29;20057;-67
2021/10/16 02:51:55;;;;;;;16.40;5.90;;;13.20;99.90;;;13.54;70.55;102100.94;4841565;29;20134;-68
2021/10/16 02:54:24;;;;;;;13.20;5.85;;;13.10;99.90;;;13.44;70.89;102100.03;4841986;29;20411;-67
2021/10/16 02:56:55;;;;;;;12.38;6.43;;;13.00;99.90;;;13.36;71.26;102101.75;4841986;29;20061;-67
2021/10/16 02:59:23;;;;;;;10.60;5.80;;;13.00;99.90;;;13.32;71.45;102107.03;4843228;29;20074;-67
2021/10/16 03:01:54;;;;;;;11.05;5.63;;;12.90;99.90;;;13.31;72.08;102099.97;4841855;29;20050;-67
2021/10/16 03:04:30;;;;;;;7.93;4.97;;;12.90;99.90;;;13.25;72.99;102090.19;4843172;29;20053;-67
2021/10/16 03:07:00;;;;;;;12.75;5.40;;;12.80;99.90;;;12.60;72.75;101985.41;4841767;29;20535;-67
2021/10/16 03:09:34;;;;;;;10.35;5.22;;;12.80;99.90;;;13.23;72.25;102089.31;4841715;29;20141;-67
2021/10/16 03:12:05;;;;;;;17.88;5.57;;;12.80;99.90;;;13.26;72.13;102099.94;4841594;29;20062;-67
2021/10/16 03:14:40;;;;;;;10.30;4.50;;;12.80;99.90;;;13.23;71.66;102104.34;4841789;29;20108;-67
2021/10/16 03:17:08;;;;;;;12.18;4.95;;;12.80;99.90;;;13.20;71.26;102099.91;4842783;29;20065;-67
2021/10/16 03:19:37;;;;;;;9.32;4.63;;;12.80;99.90;;;13.10;71.73;102099.88;4842722;29;20467;-67
2021/10/16 03:22:08;;;;;;;5.10;4.03;;;12.70;99.90;;;12.42;71.79;101990.59;4841287;29;20061;-67
2021/10/16 03:24:40;;;;;;;12.25;4.82;;;12.60;99.90;;;13.02;72.11;102104.22;4841134;29;20056;-67
2021/10/16 03:27:10;;;;;;;8.35;4.75;;;12.60;99.90;;;12.99;72.24;102098.91;4841563;29;20062;-68
2021/10/16 03:29:38;;;;;;;13.53;5.30;;;12.60;99.90;;;13.00;72.14;102092.69;4842629;29;20054;-67
2021/10/16 03:32:07;;;;;;;14.23;5.50;;;12.60;99.90;;;12.96;72.12;102097.09;4841234;29;20481;-67
2021/10/16 03:34:36;;;;;;;12.65;5.28;;;12.60;99.90;;;12.92;72.30;102091.75;4841159;29;20061;-67
2021/10/16 03:37:04;;;;;;;11.98;5.55;;;12.50;99.90;;;12.29;72.33;101983.44;4841135;29;20046;-67
2021/10/16 03:39:35;;;;;;;14.02;5.97;;;12.50;99.90;;;13.05;71.75;102097.19;4841230;29;20054;-67
2021/10/16 03:42:04;;;;;;;12.27;5.57;;;12.60;99.90;;;13.08;71.33;102093.66;4840989;29;20060;-67
2021/10/16 03:44:37;;;;;;;16.13;5.40;;;12.60;99.90;;;13.13;70.89;102086.59;4842289;29;20057;-67
2021/10/16 03:47:06;;;;;;;10.38;5.78;;;12.70;99.90;;;13.15;70.54;102085.72;4841015;29;20419;-67
2021/10/16 03:49:34;;;;;;;12.60;5.15;;;12.80;99.90;;;13.05;70.78;102086.56;4840969;29;20054;-67
2021/10/16 03:52:06;;;;;;;11.68;5.00;;;12.70;99.90;;;12.85;71.66;102082.88;4840778;29;20058;-67
2021/10/16 03:54:35;;;;;;;12.68;5.45;;;12.50;99.90;;;12.78;71.72;102081.06;4840990;29;20053;-67
2021/10/16 03:57:05;;;;;;;8.43;4.82;;;12.40;99.90;;;12.69;72.02;102083.66;4840882;29;20147;-67
2021/10/16 03:59:36;;;;;;;15.50;5.93;;;12.30;99.90;;;12.69;72.06;102086.31;4840933;29;20057;-68
2021/10/16 04:02:06;;;;;;;;;;;12.30;99.90;;;12.66;72.19;102080.97;4841716;29;20069;-67
2021/10/16 04:04:35;;;;;;;4.47;3.30;;;12.30;99.90;;;12.54;72.48;102079.13;4840907;29;20258;-67
2021/10/16 04:07:03;;;;;;;5.35;3.80;;;12.20;99.90;;;12.56;72.37;102079.16;4841137;29;20109;-67
2021/10/16 04:09:32;;;;;;;7.95;4.40;;;12.20;99.90;;;12.53;72.53;102082.69;4841039;29;20054;-67
2021/10/16 04:12:01;;;;;;;8.15;4.22;;;12.10;99.90;;;12.59;72.39;102082.72;4840478;29;20065;-67
2021/10/16 04:14:33;;;;;;;11.38;4.90;;;12.20;99.90;;;12.60;72.15;102086.28;4842023;29;20054;-71
2021/10/16 04:17:01;;;;;;;6.35;4.13;;;12.20;99.90;;;12.57;72.07;102079.16;4840707;29;20061;-67
2021/10/16 04:19:31;;;;;;;14.13;5.40;;;12.20;99.90;;;12.49;72.40;102072.91;4840754;29;20153;-67
2021/10/16 04:22:00;;;;;;;11.10;5.43;;;12.10;99.90;;;12.51;72.42;102080.88;4840689;29;20053;-68
2021/10/16 04:24:29;;;;;;;10.50;4.75;;;12.10;99.90;;;12.49;72.53;102083.53;4840348;29;20065;-67
2021/10/16 04:26:58;;;;;;;7.47;3.90;;;12.10;99.90;;;12.47;72.58;102079.97;4840637;29;20077;-67
2021/10/16 04:29:29;;;;;;;6.47;4.47;;;12.00;99.90;;;12.50;73.02;102084.44;4841661;29;20042;-67
2021/10/16 04:32:04;;;;;;;5.68;3.97;;;12.10;99.90;;;12.47;73.12;102116.22;4840654;29;20081;-67
2021/10/16 04:34:34;;;;;;;5.57;4.05;;;12.00;99.90;;;12.46;73.51;102085.28;4840550;29;20050;-67
2021/10/16 04:37:03;;;;;;;5.85;4.00;;;12.00;99.90;;;12.47;73.32;102084.38;4841874;29;20140;-67
2021/10/16 04:39:31;;;;;;;4.75;3.60;;;12.10;99.90;;;12.53;73.33;102082.69;4840509;29;20046;-67
2021/10/16 04:42:00;;;;;;;11.43;4.60;;;12.10;99.90;;;12.57;72.87;102091.53;4840485;29;20125;-68
2021/10/16 04:44:30;;;;;;;7.03;3.63;;;12.20;99.90;;;12.56;73.40;102095.94;4840258;29;20398;-67
2021/10/16 04:46:58;;;;;;;5.22;3.55;;;12.20;99.90;;;12.50;73.68;102073.81;4840494;29;20552;-69
2021/10/16 04:49:28;;;;;;;6.95;4.00;;;12.20;99.90;;;12.58;73.49;102083.59;4840518;29;20056;-68
2021/10/16 04:51:58;;;;;;;7.97;4.22;;;12.20;99.90;;;12.61;73.73;102088.94;4840162;29;20140;-67
2021/10/16 04:54:27;;;;;;;9.53;4.60;;;12.20;99.90;;;12.58;73.72;102088.03;4841776;29;20046;-67
2021/10/16 04:56:56;;;;;;;11.57;4.15;;;12.20;99.90;;;12.57;73.90;102091.53;4841742;29;20318;-67
2021/10/16 04:59:25;;;;;;;8.23;4.25;;;12.20;99.90;;;12.54;74.09;102089.75;4840357;29;20050;-69
2021/10/16 05:01:54;;;;;;;12.90;6.00;;;12.20;99.90;;;12.50;73.70;102077.31;4841262;29;20050;-68
2021/10/16 05:04:23;;;;;;;8.03;4.37;;;12.20;99.90;;;11.98;73.56;101986.75;4840228;29;20073;-67
2021/10/16 05:06:57;;;;;;;10.48;4.40;;;12.10;99.90;;;12.49;73.91;102085.28;4840464;29;20058;-67
2021/10/16 05:09:26;;;;;;;9.05;4.82;;;12.10;99.90;;;12.49;74.15;102078.22;4840413;29;20119;-67
2021/10/16 05:11:55;;;;;;;9.45;5.10;;;12.00;99.90;;;12.50;74.79;102079.13;4841381;29;20057;-67
2021/10/16 05:14:23;;;;;;;10.02;5.35;;;12.00;99.90;;;12.47;74.64;102071.13;4841698;29;20065;-68
2021/10/16 05:16:51;;;;;;;10.95;5.20;;;12.00;99.90;;;12.39;74.13;102057.78;4844674;29;20073;-67
2021/10/16 05:19:20;;;;;;;11.95;5.25;;;12.10;99.90;;;12.51;74.22;102072.91;4843681;29;20050;-67
2021/10/16 05:21:49;;;;;;;11.45;5.18;;;12.10;99.90;;;12.48;74.21;102067.59;4843556;29;20520;-69
2021/10/16 05:24:19;;;;;;;17.27;5.22;;;12.10;99.90;;;12.53;73.96;102066.75;4843615;29;20054;-66
2021/10/16 05:26:48;;;;;;;13.10;5.47;;;12.10;99.90;;;12.57;73.88;102076.50;4843663;29;20057;-67
2021/10/16 05:29:16;;;;;;;14.00;5.45;;;12.20;99.90;;;12.65;74.04;102077.44;4843287;29;20058;-67
2021/10/16 05:31:45;;;;;;;13.60;5.20;;;12.30;99.90;;;12.70;74.16;102077.47;4843525;29;20050;-67
2021/10/16 05:34:17;;;;;;;13.65;5.68;;;12.30;99.90;;;12.70;73.81;102077.47;4843566;29;20054;-67
2021/10/16 05:36:46;;;;;;;13.32;5.07;;;12.30;99.90;;;12.79;73.79;102074.00;4843406;29;20065;-67
2021/10/16 05:39:17;;;;;;;11.68;5.00;;;12.40;99.90;;;12.83;74.05;102074.03;4845127;29;20053;-68
2021/10/16 05:41:47;;;;;;;12.27;5.30;;;12.40;99.90;;;12.84;73.97;102077.53;4844852;29;20118;-67
2021/10/16 05:44:16;;;;;;;15.45;5.70;;;12.40;99.90;;;12.82;73.46;102080.19;4843080;29;20077;-68
2021/10/16 05:46:45;;;;;;;13.27;5.68;;;12.40;99.90;;;12.87;73.17;102075.81;4843290;29;20046;-67
2021/10/16 05:49:14;;;;;;;12.60;5.22;;;12.50;99.90;;;12.89;73.25;102083.78;4844714;29;20400;-67
2021/10/16 05:51:43;;;;;;;19.88;5.65;;;12.50;99.90;;;12.88;73.15;102072.28;4842898;29;20069;-67
2021/10/16 05:54:12;;;;;;;13.73;5.75;;;12.50;99.90;;;12.90;72.64;102081.13;4843169;29;20057;-68
2021/10/16 05:56:42;;;;;;;14.30;5.35;;;12.50;99.90;;;12.94;72.74;102085.59;4843137;29;20353;-68
2021/10/16 05:59:12;;;;;;;11.38;5.13;;;12.60;99.90;;;12.96;72.72;102080.28;4843003;29;20057;-67
2021/10/16 06:01:41;;;;;;;9.77;5.50;;;12.60;99.90;;;12.91;73.70;102076.72;4842742;29;20054;-67
2021/10/16 06:04:09;;;;;;;13.10;5.18;;;12.50;99.90;;;12.93;73.53;102077.63;4842801;29;20050;-67
2021/10/16 06:06:38;;;;;;;16.60;5.55;;;12.50;99.90;;;12.97;73.21;102074.09;4844110;29;20127;-69
2021/10/16 06:09:06;;;;;;;14.73;5.53;;;12.60;99.90;;;13.00;73.48;102069.69;4842796;29;20042;-67
2021/10/16 06:11:35;;;;;;;11.68;4.72;;;12.60;99.90;;;13.07;74.24;102078.59;4843746;29;20046;-67
2021/10/16 06:14:03;;;;;;;15.23;5.97;;;12.70;99.90;;;13.14;73.88;102075.97;4842847;29;20412;-68
2021/10/16 06:16:33;;;;;;;19.45;5.80;;;12.80;99.90;;;13.10;73.34;102068.88;4842662;29;20045;-67
2021/10/16 06:19:04;;;;;;;13.77;5.13;;;12.70;99.90;;;13.07;72.88;102074.16;4843791;29;20054;-67
2021/10/16 06:21:35;;;;;;;12.77;5.75;;;12.70;99.90;;;13.04;73.02;102071.50;4842477;29;20561;-67
2021/10/16 06:24:04;;;;;;;15.05;6.10;;;12.70;99.90;;;13.01;72.89;102066.13;4842317;29;20592;-67
2021/10/16 06:26:51;;;;;;;11.73;5.60;;;12.60;99.90;;;12.95;73.20;102071.41;4841690;29;20136;-67
2021/10/16 06:29:19;;;;;;;14.82;5.78;;;12.60;99.90;;;12.96;73.37;102073.19;4841970;29;20152;-67
2021/10/16 06:31:49;;;;;;;16.13;6.53;;;12.60;99.90;;;12.96;73.80;102082.94;4842316;29;20046;-67
2021/10/16 06:34:17;;;;;;;18.42;5.60;;;12.60;99.90;;;12.99;74.29;102081.19;4843552;29;20081;-67
2021/10/16 06:36:46;;;;;;;14.85;5.60;;;12.60;99.90;;;13.02;74.46;102082.97;4842192;29;20145;-68
2021/10/16 06:39:14;;;;;;;13.50;5.40;;;12.60;99.90;;;12.97;74.18;102074.97;4842109;29;20046;-67
2021/10/16 06:41:51;;;;;;;15.02;5.30;;;12.60;99.90;;;12.97;74.29;102077.63;4841823;29;20543;-69
2021/10/16 06:44:28;;;;;;;19.40;6.25;;;12.70;99.90;;;12.95;74.42;102079.38;4843464;29;20148;-67
2021/10/16 06:47:02;;;;;;;14.75;6.40;;;12.70;99.90;;;12.99;74.35;102088.28;4842105;29;20103;-67
2021/10/16 06:49:34;;;;;;;12.00;5.63;;;12.70;99.90;;;12.98;74.17;102075.84;4841926;29;20049;-68
2021/10/16 06:52:04;;;;;;;15.40;5.90;;;12.70;99.90;;;13.08;74.14;102083.03;4843217;29;20057;-68
2021/10/16 06:54:32;;;;;;;15.63;5.95;;;12.70;99.90;;;13.04;74.22;102084.78;4843044;29;20062;-68
2021/10/16 06:57:00;;;;;;;19.17;6.05;;;12.80;99.90;;;13.07;74.07;102076.81;4841819;29;20053;-67
2021/10/16 06:59:31;;;;;;;22.33;6.63;;;12.80;99.90;;;13.19;73.76;102089.28;4841674;29;20058;-67
2021/10/16 07:01:59;;;;;;;19.52;6.30;;;12.80;99.90;;;13.14;73.58;102089.25;4841055;29;20065;-67
2021/10/16 07:04:37;;;;;;;18.88;6.18;;;12.80;99.90;;;13.08;74.17;102077.72;4841327;29;20054;-67
2021/10/16 07:07:05;;;;;;;18.55;6.30;;;12.70;99.90;;;13.04;74.34;102079.47;4841658;29;20060;-67
2021/10/16 07:09:40;;;;;;;23.58;5.65;;;12.70;99.90;;;13.16;74.32;102090.13;4841876;29;20041;-67
2021/10/16 07:12:09;;;;;;;19.42;6.32;;;12.80;99.90;;;13.12;74.26;102067.13;4842604;29;20057;-67
2021/10/16 07:14:37;;;;;;;18.13;5.68;;;12.80;99.90;;;13.26;74.86;102089.31;4842925;29;20099;-67
2021/10/16 07:17:10;;;;;;;19.60;5.65;;;12.90;99.90;;;13.25;74.78;102084.88;4841706;29;20398;-68
2021/10/16 07:19:40;;;;;;;19.50;6.20;;;12.90;99.90;;;13.39;74.30;102088.47;4842390;29;20049;-67
2021/10/16 07:22:09;;;;;;;15.13;5.45;;;13.00;99.90;;;13.43;73.98;102090.25;4842574;29;20046;-67
2021/10/16 07:24:37;;;;;;;20.02;6.53;;;13.00;99.90;;;13.49;74.20;102100.06;4842458;29;20040;-67
2021/10/16 07:27:05;;;;;;;22.45;6.47;;;13.10;99.90;;;13.53;73.91;102093.81;4842260;29;20110;-67
2021/10/16 07:29:34;;;;;;;23.90;5.78;;;13.20;99.90;;;13.61;73.63;102099.19;4842209;29;20083;-67
2021/10/16 07:32:02;;;;;;;22.60;6.88;;;13.30;99.90;;;13.68;73.26;102100.97;4842480;29;20058;-67
2021/10/16 07:34:31;;;;;;;20.50;6.07;;;13.40;99.90;;;13.75;72.62;102105.41;4842181;29;20076;-68
2021/10/16 07:37:01;;;;;;;20.73;6.68;;;13.40;99.90;;;13.83;72.72;102106.31;4841730;29;20402;-67
2021/10/16 07:39:29;;;;;;;23.88;6.45;;;13.50;99.90;;;13.92;72.43;102112.56;4842311;29;20098;-66
2021/10/16 07:41:58;;;;;;;16.92;6.55;;;13.60;99.90;;;14.01;71.98;102111.69;4842327;29;20369;-67
2021/10/16 07:44:26;;;;;;;18.23;6.13;;;13.70;99.90;;;14.08;71.77;102113.47;4842214;29;20094;-67
2021/10/16 07:46:55;;;;;;;19.13;6.53;;;13.70;99.90;;;14.08;72.02;102110.81;4841942;29;20042;-67
2021/10/16 07:49:23;;;;;;;19.05;6.50;;;13.80;99.90;;;14.13;72.00;102119.69;4842118;29;20074;-67
2021/10/16 07:51:51;;;;;;;22.20;6.25;;;13.80;99.90;;;14.21;71.98;102116.13;4842189;29;20057;-67
2021/10/16 07:54:21;;;;;;;18.10;5.90;;;13.80;99.90;;;14.30;71.85;102112.63;4842023;29;20429;-67
2021/10/16 07:56:50;;;;;;;18.83;6.03;;;13.90;99.90;;;14.37;72.06;102119.72;4842276;29;20046;-67
2021/10/16 07:59:18;;;;;;;15.77;5.57;;;14.00;99.90;;;14.45;71.83;102120.63;4842242;29;20093;-67
2021/10/16 08:01:47;;;;;;;16.45;6.20;;;14.00;99.90;;;14.46;71.71;102115.28;4840753;29;20473;-67
2021/10/16 08:04:15;;;;;;;16.60;5.80;;;14.10;99.90;;;14.51;71.95;102117.97;4841932;29;20053;-67
2021/10/16 08:06:44;;;;;;;12.85;6.07;;;14.10;99.90;;;14.53;71.89;102121.50;4840880;29;20081;-67
2021/10/16 08:09:14;;;;;;;17.42;6.32;;;14.20;99.90;;;14.56;71.63;102126.81;4841918;29;20078;-67
2021/10/16 08:11:51;;;;;;;16.08;5.90;;;14.20;99.90;;;14.59;71.90;102118.84;4840932;29;20058;-67
2021/10/16 08:14:20;;;;;;;16.87;5.83;;;14.20;99.90;;;14.63;71.68;102125.94;4841760;29;20042;-67
2021/10/16 08:16:48;;;;;;;22.10;6.20;;;14.30;99.90;;;14.70;71.62;102134.81;4842092;29;20719;-67
2021/10/16 08:19:17;;;;;;;14.60;5.80;;;14.30;99.90;;;14.72;71.47;102122.38;4842124;29;20110;-67
2021/10/16 08:21:45;;;;;;;16.50;6.07;;;14.40;99.90;;;14.80;70.97;102123.25;4842153;29;20042;-68
2021/10/16 08:24:13;;;;;;;14.68;6.32;;;14.40;99.90;;;14.82;71.32;102130.34;4840685;29;20091;-67
2021/10/16 08:26:42;;;;;;;13.88;6.10;;;14.40;99.90;;;14.83;71.28;102125.91;4841851;29;20088;-67
2021/10/16 08:29:12;;;;;;;17.10;6.47;;;14.40;99.90;;;14.79;71.83;102124.16;4841848;29;20046;-68
2021/10/16 08:31:40;;;;;;;16.83;6.50;;;14.40;99.90;;;14.80;71.73;102129.47;4842398;29;20061;-67
2021/10/16 08:34:09;;;;;;;18.33;5.65;;;14.40;99.90;;;14.69;71.82;102104.59;4842163;29;20057;-67
2021/10/16 08:36:38;;;;;;;18.92;6.57;;;14.40;99.90;;;14.82;71.60;102127.69;4842152;29;20133;-67
2021/10/16 08:39:07;;;;;;;16.85;6.25;;;14.40;99.90;;;14.84;71.61;102135.69;4842264;29;20457;-68
2021/10/16 08:41:36;;;;;;;16.75;6.18;;;14.50;99.90;;;14.91;71.31;102125.00;4842150;29;20078;-67
2021/10/16 08:44:05;;;;;;;20.13;6.28;;;14.50;99.90;;;14.92;71.26;102137.44;4840346;29;20058;-67
2021/10/16 08:46:42;;;;;;;14.30;5.90;;;14.50;99.90;;;14.92;71.27;102139.22;4841859;29;20062;-67
2021/10/16 08:49:15;;;;;;;18.25;6.70;;;14.50;99.90;;;14.94;71.49;102134.78;4843339;29;20127;-67
2021/10/16 08:51:44;;;;;;;17.90;6.68;;;14.50;99.90;;;14.96;71.38;102138.31;4845121;29;20054;-67
2021/10/16 08:54:12;;;;;;;17.33;6.25;;;14.60;99.90;;;14.96;71.39;102141.00;4845744;29;20062;-67
2021/10/16 08:56:43;;;;;;;20.95;6.68;;;14.60;99.90;;;14.95;70.80;102140.09;4844218;29;20050;-67
2021/10/16 08:59:12;;;;;;;19.63;5.97;;;14.60;99.90;;;14.98;70.70;102150.72;4845118;29;20099;-67
2021/10/16 09:01:59;;;;;;;19.15;6.20;;;14.60;99.90;;;14.96;70.71;102147.19;4845224;29;20053;-67
2021/10/16 09:04:31;;;;;;;23.08;6.05;;;14.60;99.90;;;14.97;70.41;102150.75;4844902;29;20125;-67
2021/10/16 09:07:01;;;;;;;19.63;6.95;;;14.60;99.90;;;14.96;70.65;102157.84;4845193;29;20045;-67
2021/10/16 09:09:31;;;;;;;14.07;6.28;;;14.60;99.90;;;14.95;70.30;102158.75;4845341;29;20149;-68
2021/10/16 09:12:00;;;;;;;20.60;6.45;;;14.60;99.90;;;14.95;70.27;102150.75;4845079;29;20110;-67
2021/10/16 09:14:31;;;;;;;16.65;6.72;;;14.60;99.90;;;14.93;69.98;102155.19;4844637;29;20061;-67
2021/10/16 09:17:05;;;;;;;15.60;6.65;;;14.60;99.90;;;15.02;70.02;102152.50;4844784;29;20115;-67
2021/10/16 09:19:36;;;;;;;15.45;6.35;;;14.60;99.90;;;15.00;70.12;102146.28;4844575;29;20042;-67
2021/10/16 09:22:08;;;;;;;23.25;6.80;;;14.60;99.90;;;15.00;70.19;102142.75;4844448;29;20065;-67
2021/10/16 09:24:38;;;;;;;20.48;7.07;;;14.60;99.90;;;15.06;70.42;102148.94;4844316;29;20054;-67
2021/10/16 09:27:08;;;;;;;21.70;6.25;;;14.70;99.90;;;15.07;69.87;102147.19;4844478;29;20046;-67
2021/10/16 09:29:40;;;;;;;20.08;6.25;;;14.70;99.90;;;15.07;69.68;102145.41;4844598;29;20046;-67
2021/10/16 09:32:13;;;;;;;21.35;7.35;;;14.70;99.90;;;15.09;69.76;102148.97;4844639;29;20483;-67
2021/10/16 09:34:44;;;;;;;20.92;7.03;;;14.70;99.90;;;15.02;69.63;102165.81;4843787;29;20054;-67
2021/10/16 09:37:14;;;;;;;20.50;7.32;;;14.70;99.90;;;15.07;68.80;102145.41;4844731;29;20465;-67
2021/10/16 09:39:55;;;;;;;16.42;6.85;;;14.70;99.90;;;15.05;68.63;102141.84;4844633;29;20068;-67
2021/10/16 09:42:42;;;;;;;18.65;6.50;;;14.70;99.90;;;15.12;68.82;102142.72;4844236;29;20127;-67
2021/10/16 09:45:14;;;;;;;17.00;6.63;;;14.80;99.90;;;15.06;68.93;102132.94;4842919;29;20053;-67
2021/10/16 09:47:55;;;;;;;17.80;6.72;;;14.80;99.90;;;15.26;69.72;102149.78;4844458;29;20102;-67
2021/10/16 09:50:25;;;;;;;24.00;7.70;;;14.90;99.90;;;15.20;69.29;102141.81;4843029;29;20045;-67
2021/10/16 09:52:53;;;;;;;23.60;7.05;;;14.90;99.90;;;15.31;69.83;102144.47;4843964;29;20053;-67
2021/10/16 09:55:22;;;;;;;23.20;7.80;;;15.00;99.90;;;15.43;70.17;102147.09;4844134;29;20057;-67
2021/10/16 09:57:53;;;;;;;27.95;8.07;;;15.10;99.90;;;15.35;69.47;102156.84;4843884;29;20046;-67
2021/10/16 10:00:26;;;;;;;25.85;8.10;;;15.00;99.90;;;15.38;70.70;102151.53;4842882;29;20042;-67
2021/10/16 10:02:59;;;;;;;24.13;8.48;;;15.00;99.90;;;15.33;70.07;102154.19;4843990;29;20152;-68
2021/10/16 10:05:29;;;;;;;21.30;7.82;;;15.00;99.90;;;15.20;69.61;102152.47;4843711;29;20046;-68
2021/10/16 10:07:58;;;;;;;22.10;7.00;;;14.90;99.90;;;15.31;69.05;102155.97;4844026;29;20095;-67
2021/10/16 10:10:26;;;;;;;25.08;7.22;;;15.00;99.90;;;15.25;67.89;102161.34;4842625;29;20053;-67
2021/10/16 10:12:57;;;;;;;18.20;6.30;;;15.00;99.90;;;15.16;66.79;102117.81;4843613;29;20480;-68
2021/10/16 10:15:26;;;;;;;17.77;6.85;;;15.00;99.90;;;15.38;65.54;102148.88;4843984;29;20114;-68
2021/10/16 10:17:58;;;;;;;17.02;6.18;;;15.10;99.90;;;15.53;65.61;102159.50;4843768;29;20084;-67
2021/10/16 10:20:27;;;;;;;19.25;6.15;;;15.20;99.90;;;15.60;65.69;102157.72;4843525;29;20054;-67
2021/10/16 10:22:55;;;;;;;16.50;5.82;;;15.30;99.90;;;15.61;64.65;102163.03;4843378;29;20061;-67